createdAt,value
2023-07-30T00:00:39.116Z,25.00
2023-07-30T00:03:07.028Z,25.00
2023-07-30T00:05:34.973Z,24.90
2023-07-30T00:08:02.746Z,24.80
2023-07-30T00:10:30.659Z,24.70
2023-07-30T00:12:58.373Z,24.60
2023-07-30T00:15:26.236Z,24.50
2023-07-30T00:17:54.222Z,24.20
2023-07-30T00:20:22.065Z,23.60
2023-07-30T00:22:49.861Z,22.90
2023-07-30T00:25:17.699Z,22.60
2023-07-30T00:27:45.407Z,22.60
2023-07-30T00:30:13.200Z,22.50
2023-07-30T00:32:45.822Z,22.50
2023-07-30T00:35:14.092Z,22.30
2023-07-30T00:37:41.910Z,22.20
2023-07-30T00:40:10.184Z,22.20
2023-07-30T00:42:38.004Z,22.30
2023-07-30T00:45:06.484Z,22.30
2023-07-30T00:47:34.511Z,22.20
2023-07-30T00:50:03.002Z,22.10
2023-07-30T00:52:31.684Z,22.00
2023-07-30T00:55:03.083Z,22.00
2023-07-30T00:57:33.467Z,22.10
2023-07-30T01:00:05.348Z,22.00
2023-07-30T01:02:33.732Z,21.80
2023-07-30T01:05:04.691Z,21.70
2023-07-30T01:07:33.404Z,21.80
2023-07-30T01:10:02.826Z,22.00
2023-07-30T01:12:35.533Z,22.00
2023-07-30T01:15:04.761Z,21.80
2023-07-30T01:17:32.742Z,21.80
2023-07-30T01:20:00.486Z,21.90
2023-07-30T01:22:28.379Z,21.80
2023-07-30T01:24:58.161Z,21.70
2023-07-30T01:27:30.809Z,21.80
2023-07-30T01:30:26.898Z,21.70
2023-07-30T01:32:55.978Z,21.70
2023-07-30T01:35:28.227Z,21.50
2023-07-30T01:37:56.923Z,21.50
2023-07-30T01:40:24.837Z,21.60
2023-07-30T01:42:52.989Z,21.60
2023-07-30T01:45:20.843Z,21.70
2023-07-30T01:47:48.750Z,21.70
2023-07-30T01:50:16.782Z,21.90
2023-07-30T01:52:44.618Z,21.90
2023-07-30T01:55:12.461Z,21.90
2023-07-30T01:57:40.350Z,22.00
2023-07-30T02:00:08.769Z,21.90
2023-07-30T02:02:38.078Z,21.60
2023-07-30T02:05:06.184Z,21.50
2023-07-30T02:07:34.047Z,21.40
2023-07-30T02:10:01.938Z,21.20
2023-07-30T02:12:29.761Z,21.10
2023-07-30T02:14:57.606Z,21.10
2023-07-30T02:17:25.321Z,21.40
2023-07-30T02:19:52.991Z,21.50
2023-07-30T02:22:20.860Z,21.50
2023-07-30T02:24:48.883Z,21.40
2023-07-30T02:27:16.804Z,21.10
2023-07-30T02:29:44.705Z,21.00
2023-07-30T02:32:12.687Z,20.80
2023-07-30T02:34:40.544Z,20.60
2023-07-30T02:37:08.472Z,20.70
2023-07-30T02:39:36.302Z,20.70
2023-07-30T02:42:04.760Z,20.70
2023-07-30T02:44:32.588Z,20.60
2023-07-30T02:47:00.420Z,20.70
2023-07-30T02:49:28.210Z,20.80
2023-07-30T02:51:56.036Z,20.80
2023-07-30T02:54:23.910Z,20.80
2023-07-30T02:56:51.742Z,20.70
2023-07-30T02:59:19.614Z,20.60
2023-07-30T03:01:47.475Z,20.60
2023-07-30T03:04:15.514Z,20.60
2023-07-30T03:06:43.306Z,20.60
2023-07-30T03:09:11.144Z,20.60
2023-07-30T03:11:39.303Z,20.60
2023-07-30T03:14:07.442Z,20.70
2023-07-30T03:16:35.382Z,20.90
2023-07-30T03:19:03.361Z,20.90
2023-07-30T03:21:31.045Z,21.00
2023-07-30T03:23:58.921Z,20.90
2023-07-30T03:26:26.831Z,21.00
2023-07-30T03:28:55.474Z,21.10
2023-07-30T03:31:23.416Z,21.40
2023-07-30T03:33:51.277Z,21.40
2023-07-30T03:36:19.061Z,21.40
2023-07-30T03:38:46.899Z,21.20
2023-07-30T03:41:14.881Z,21.10
2023-07-30T03:43:42.785Z,21.20
2023-07-30T03:46:10.557Z,21.20
2023-07-30T03:48:39.842Z,21.20
2023-07-30T03:51:08.528Z,21.10
2023-07-30T03:53:36.499Z,21.20
2023-07-30T03:56:04.442Z,21.30
2023-07-30T03:58:32.844Z,21.50
2023-07-30T04:01:00.954Z,21.60
2023-07-30T04:03:30.187Z,21.40
2023-07-30T04:05:58.127Z,21.20
2023-07-30T04:08:26.057Z,21.40
2023-07-30T04:10:53.974Z,21.60
2023-07-30T04:13:21.959Z,21.60
2023-07-30T04:15:50.062Z,21.60
2023-07-30T04:18:17.901Z,21.60
2023-07-30T04:20:45.762Z,21.50
2023-07-30T04:23:14.364Z,21.50
2023-07-30T04:25:42.340Z,21.50
2023-07-30T04:28:10.291Z,21.60
2023-07-30T04:30:38.226Z,21.60
2023-07-30T04:33:06.063Z,21.80
2023-07-30T04:35:35.994Z,21.90
2023-07-30T04:38:04.211Z,22.00
2023-07-30T04:40:32.126Z,21.90
2023-07-30T04:42:59.937Z,22.00
2023-07-30T04:45:28.792Z,22.00
2023-07-30T04:47:57.948Z,22.00
2023-07-30T04:50:25.818Z,22.20
2023-07-30T04:52:53.789Z,22.30
2023-07-30T04:55:21.581Z,22.20
2023-07-30T04:57:49.458Z,22.20
2023-07-30T05:00:18.040Z,22.20
2023-07-30T05:02:45.960Z,22.30
2023-07-30T05:05:14.128Z,22.20
2023-07-30T05:07:41.985Z,22.10
2023-07-30T05:10:12.120Z,22.00
2023-07-30T05:12:40.068Z,22.20
2023-07-30T05:15:08.249Z,22.20
2023-07-30T05:17:36.017Z,22.30
2023-07-30T05:20:03.990Z,22.40
2023-07-30T05:22:31.784Z,22.60
2023-07-30T05:24:59.642Z,22.60
2023-07-30T05:27:30.277Z,22.60
2023-07-30T05:29:58.102Z,22.70
2023-07-30T05:32:26.549Z,22.60
2023-07-30T05:34:54.415Z,22.80
2023-07-30T05:37:22.307Z,23.00
2023-07-30T05:39:50.149Z,22.90
2023-07-30T05:42:17.989Z,22.90
2023-07-30T05:44:45.853Z,23.10
2023-07-30T05:47:13.529Z,23.30
2023-07-30T05:49:41.334Z,22.90
2023-07-30T05:52:09.191Z,23.00
2023-07-30T05:54:36.881Z,23.10
2023-07-30T05:57:05.047Z,23.10
2023-07-30T05:59:32.785Z,23.20
2023-07-30T06:02:04.469Z,23.20
2023-07-30T06:04:32.432Z,23.30
2023-07-30T06:07:02.103Z,23.50
2023-07-30T06:09:30.098Z,23.60
2023-07-30T06:12:01.238Z,23.50
2023-07-30T06:14:28.917Z,23.50
2023-07-30T06:16:56.782Z,23.40
2023-07-30T06:19:24.583Z,23.40
2023-07-30T06:21:52.563Z,23.60
2023-07-30T06:24:20.288Z,23.60
2023-07-30T06:26:48.071Z,23.60
2023-07-30T06:29:16.270Z,23.60
2023-07-30T06:31:44.114Z,23.50
2023-07-30T06:34:11.954Z,23.60
2023-07-30T06:36:39.667Z,23.70
2023-07-30T06:39:07.487Z,23.90
2023-07-30T06:41:35.309Z,23.90
2023-07-30T06:44:03.368Z,23.80
2023-07-30T06:46:31.249Z,23.80
2023-07-30T06:48:59.198Z,23.80
2023-07-30T06:51:28.215Z,23.80
2023-07-30T06:53:56.103Z,23.70
2023-07-30T06:56:23.945Z,23.80
2023-07-30T06:58:51.679Z,23.80
2023-07-30T07:01:19.514Z,24.00
2023-07-30T07:03:47.374Z,24.10
2023-07-30T07:06:15.230Z,24.10
2023-07-30T07:08:43.098Z,24.30
2023-07-30T07:11:10.901Z,24.40
2023-07-30T07:13:38.718Z,24.50
2023-07-30T07:16:06.604Z,24.60
2023-07-30T07:18:34.476Z,24.60
2023-07-30T07:21:02.279Z,24.70
2023-07-30T07:23:30.154Z,24.80
2023-07-30T07:25:57.983Z,25.00
2023-07-30T07:28:25.814Z,24.90
2023-07-30T07:30:53.798Z,24.90
2023-07-30T07:33:21.567Z,25.00
2023-07-30T07:35:49.402Z,25.10
2023-07-30T07:38:17.374Z,25.20
2023-07-30T07:40:45.558Z,25.10
2023-07-30T07:43:13.522Z,25.00
2023-07-30T07:45:41.324Z,25.00
2023-07-30T07:48:09.074Z,25.20
2023-07-30T07:50:36.923Z,25.30
2023-07-30T07:53:04.617Z,25.30
2023-07-30T07:55:32.365Z,25.40
2023-07-30T07:58:00.140Z,25.40
2023-07-30T08:00:27.906Z,25.30
2023-07-30T08:02:55.628Z,25.20
2023-07-30T08:05:23.323Z,25.30
2023-07-30T08:07:51.850Z,25.50
2023-07-30T08:10:19.651Z,25.60
2023-07-30T08:12:50.284Z,25.60
2023-07-30T08:15:18.437Z,25.70
2023-07-30T08:17:46.195Z,25.80
2023-07-30T08:20:14.095Z,25.80
2023-07-30T08:22:41.910Z,25.90
2023-07-30T08:25:09.895Z,26.00
2023-07-30T08:27:37.705Z,26.00
2023-07-30T08:30:06.142Z,26.10
2023-07-30T08:32:35.337Z,26.20
2023-07-30T08:35:04.557Z,26.20
2023-07-30T08:37:32.427Z,26.10
2023-07-30T08:40:00.219Z,26.20
2023-07-30T08:42:28.065Z,26.40
2023-07-30T08:44:55.837Z,26.30
2023-07-30T08:47:23.698Z,26.30
2023-07-30T08:49:51.892Z,26.40
2023-07-30T08:52:22.042Z,26.60
2023-07-30T08:54:53.113Z,26.60
2023-07-30T08:57:22.928Z,26.40
2023-07-30T08:59:56.223Z,26.50
2023-07-30T09:02:44.706Z,26.60
2023-07-30T09:05:12.875Z,26.60
2023-07-30T09:07:40.766Z,26.70
2023-07-30T09:10:08.894Z,26.60
2023-07-30T09:12:37.202Z,26.60
2023-07-30T09:15:05.989Z,26.80
2023-07-30T09:17:35.409Z,26.90
2023-07-30T09:20:07.403Z,27.00
2023-07-30T09:22:41.347Z,27.20
2023-07-30T09:25:09.849Z,27.40
2023-07-30T09:27:37.668Z,27.50
2023-07-30T09:30:07.352Z,27.50
2023-07-30T09:32:36.585Z,27.60
2023-07-30T09:35:09.223Z,27.70
2023-07-30T09:37:42.003Z,27.80
2023-07-30T09:40:15.404Z,27.90
2023-07-30T09:42:51.957Z,27.80
2023-07-30T09:45:26.937Z,27.70
2023-07-30T09:47:57.812Z,27.70
2023-07-30T09:50:25.903Z,27.70
2023-07-30T09:52:54.223Z,27.80
2023-07-30T09:55:22.102Z,27.90
2023-07-30T09:57:49.925Z,28.00
2023-07-30T10:00:17.796Z,28.20
2023-07-30T10:02:51.266Z,28.30
2023-07-30T10:05:28.939Z,28.30
2023-07-30T10:08:05.386Z,28.40
2023-07-30T10:10:33.846Z,28.40
2023-07-30T10:13:06.480Z,28.50
2023-07-30T10:15:39.339Z,28.20
2023-07-30T10:18:07.364Z,27.90
2023-07-30T10:20:35.406Z,27.90
2023-07-30T10:23:05.766Z,27.90
2023-07-30T10:25:51.172Z,28.00
2023-07-30T10:28:31.381Z,28.40
2023-07-30T10:31:05.274Z,28.50
2023-07-30T10:33:58.958Z,28.70
2023-07-30T10:36:45.873Z,28.60
2023-07-30T10:39:23.259Z,28.40
2023-07-30T10:41:52.850Z,28.40
2023-07-30T10:44:34.994Z,28.70
2023-07-30T10:47:07.361Z,29.00
2023-07-30T10:49:39.640Z,29.10
2023-07-30T10:52:08.084Z,29.30
2023-07-30T10:54:36.297Z,29.40
2023-07-30T10:57:05.082Z,29.50
2023-07-30T10:59:39.834Z,29.40
2023-07-30T11:02:10.178Z,29.00
2023-07-30T11:04:38.092Z,29.00
2023-07-30T11:07:05.941Z,28.90
2023-07-30T11:09:33.758Z,29.00
2023-07-30T11:12:01.767Z,29.00
2023-07-30T11:14:29.574Z,29.10
2023-07-30T11:17:00.388Z,29.30
2023-07-30T11:19:29.568Z,29.60
2023-07-30T11:21:59.045Z,29.90
2023-07-30T11:24:37.403Z,30.20
2023-07-30T11:27:05.505Z,30.20
2023-07-30T11:29:33.323Z,30.00
2023-07-30T11:32:04.358Z,30.00
2023-07-30T11:34:35.156Z,30.20
2023-07-30T11:37:05.414Z,30.10
2023-07-30T11:39:33.376Z,30.10
2023-07-30T11:42:01.972Z,30.30
2023-07-30T11:44:35.803Z,30.30
2023-07-30T11:47:05.343Z,30.20
2023-07-30T11:49:33.127Z,29.70
2023-07-30T11:52:08.887Z,29.80
2023-07-30T11:54:37.358Z,30.10
2023-07-30T11:57:05.454Z,30.30
2023-07-30T11:59:33.680Z,30.10
2023-07-30T12:02:02.187Z,29.90
2023-07-30T12:04:45.218Z,29.80
2023-07-30T12:07:23.061Z,29.90
2023-07-30T12:09:51.017Z,30.00
2023-07-30T12:12:18.719Z,29.70
2023-07-30T12:14:49.570Z,29.60
2023-07-30T12:17:17.587Z,29.50
2023-07-30T12:19:45.513Z,29.60
2023-07-30T12:22:13.253Z,29.70
2023-07-30T12:24:42.505Z,29.80
2023-07-30T12:27:10.272Z,30.10
2023-07-30T12:29:38.241Z,30.40
2023-07-30T12:32:06.194Z,30.50
2023-07-30T12:34:33.990Z,30.80
2023-07-30T12:37:01.875Z,31.00
2023-07-30T12:39:29.635Z,31.10
2023-07-30T12:41:57.418Z,31.30
2023-07-30T12:44:25.299Z,31.40
2023-07-30T12:46:53.046Z,31.50
2023-07-30T12:49:20.868Z,31.30
2023-07-30T12:51:48.545Z,30.60
2023-07-30T12:54:16.349Z,30.70
2023-07-30T12:56:44.103Z,30.90
2023-07-30T12:59:11.845Z,30.70
2023-07-30T13:01:39.836Z,30.50
2023-07-30T13:04:08.070Z,30.50
2023-07-30T13:06:35.806Z,30.60
2023-07-30T13:09:03.600Z,31.00
2023-07-30T13:11:31.410Z,31.30
2023-07-30T13:13:59.277Z,31.40
2023-07-30T13:16:27.056Z,31.00
2023-07-30T13:18:58.174Z,30.90
2023-07-30T13:21:26.399Z,31.20
2023-07-30T13:23:54.393Z,31.10
2023-07-30T13:26:22.191Z,31.20
2023-07-30T13:28:49.949Z,31.70
2023-07-30T13:31:17.856Z,31.90
2023-07-30T13:33:48.272Z,32.10
2023-07-30T13:36:16.423Z,31.80
2023-07-30T13:38:44.957Z,31.90
2023-07-30T13:41:12.784Z,32.10
2023-07-30T13:43:40.628Z,31.90
2023-07-30T13:46:08.413Z,31.70
2023-07-30T13:48:36.310Z,31.60
2023-07-30T13:51:04.684Z,31.60
2023-07-30T13:53:32.525Z,31.70
2023-07-30T13:56:00.369Z,31.60
2023-07-30T13:58:28.119Z,31.80
2023-07-30T14:00:56.721Z,31.80
2023-07-30T14:03:24.559Z,31.90
2023-07-30T14:05:52.467Z,32.10
2023-07-30T14:08:22.109Z,32.20
2023-07-30T14:10:49.954Z,32.20
2023-07-30T14:13:17.669Z,31.90
2023-07-30T14:15:45.488Z,32.10
2023-07-30T14:18:13.416Z,32.20
2023-07-30T14:20:41.321Z,32.40
2023-07-30T14:23:09.045Z,32.30
2023-07-30T14:25:36.909Z,32.20
2023-07-30T14:28:05.575Z,31.90
2023-07-30T14:30:33.960Z,32.20
2023-07-30T14:33:02.122Z,32.10
2023-07-30T14:35:30.383Z,32.30
2023-07-30T14:37:58.458Z,32.10
2023-07-30T14:40:26.345Z,32.20
2023-07-30T14:42:54.143Z,32.20
2023-07-30T14:45:21.855Z,32.10
2023-07-30T14:47:50.234Z,31.90
2023-07-30T14:50:18.321Z,32.00
2023-07-30T14:52:46.647Z,32.20
2023-07-30T14:55:14.706Z,32.00
2023-07-30T14:57:42.874Z,32.00
2023-07-30T15:00:11.304Z,32.00
2023-07-30T15:02:39.107Z,32.00
2023-07-30T15:05:07.550Z,31.90
2023-07-30T15:07:35.330Z,32.10
2023-07-30T15:10:03.923Z,32.10
2023-07-30T15:12:32.591Z,32.10
2023-07-30T15:15:00.497Z,32.40
2023-07-30T15:17:28.308Z,32.50
2023-07-30T15:19:56.265Z,32.50
2023-07-30T15:22:24.148Z,32.20
2023-07-30T15:24:51.978Z,32.20
2023-07-30T15:27:19.872Z,32.20
2023-07-30T15:29:47.656Z,32.40
2023-07-30T15:32:15.572Z,32.60
2023-07-30T15:34:43.360Z,32.60
2023-07-30T15:37:11.229Z,32.70
2023-07-30T15:39:39.071Z,32.80
2023-07-30T15:42:07.902Z,32.90
2023-07-30T15:44:35.617Z,32.40
2023-07-30T15:47:03.483Z,32.30
2023-07-30T15:49:31.815Z,32.60
2023-07-30T15:51:59.496Z,32.40
2023-07-30T15:54:35.184Z,32.50
2023-07-30T15:57:04.109Z,32.40
2023-07-30T15:59:31.937Z,32.60
2023-07-30T16:02:00.081Z,32.50
2023-07-30T16:04:27.852Z,32.10
2023-07-30T16:06:58.414Z,31.90
2023-07-30T16:09:26.186Z,31.90
2023-07-30T16:11:53.957Z,32.00
2023-07-30T16:14:23.680Z,31.80
2023-07-30T16:16:52.778Z,31.40
2023-07-30T16:19:20.521Z,31.60
2023-07-30T16:21:50.389Z,31.40
2023-07-30T16:24:18.377Z,31.50
2023-07-30T16:26:46.667Z,31.20
2023-07-30T16:29:14.381Z,31.10
2023-07-30T16:31:42.147Z,31.10
2023-07-30T16:34:09.877Z,31.10
2023-07-30T16:36:38.653Z,31.10
2023-07-30T16:39:06.743Z,31.10
2023-07-30T16:41:34.576Z,31.10
2023-07-30T16:44:02.357Z,31.10
2023-07-30T16:46:31.507Z,31.00
2023-07-30T16:48:59.455Z,30.80
2023-07-30T16:51:27.251Z,30.80
2023-07-30T16:53:55.284Z,30.80
2023-07-30T16:56:23.133Z,30.70
2023-07-30T16:58:50.876Z,30.80
2023-07-30T17:01:21.388Z,30.80
2023-07-30T17:03:49.281Z,30.80
2023-07-30T17:06:17.613Z,31.00
2023-07-30T17:08:45.434Z,31.00
2023-07-30T17:11:13.319Z,31.30
2023-07-30T17:13:41.146Z,31.60
2023-07-30T17:16:10.730Z,32.00
2023-07-30T17:18:39.054Z,32.10
2023-07-30T17:21:07.081Z,32.20
2023-07-30T17:23:34.730Z,32.20
2023-07-30T17:26:02.718Z,32.70
2023-07-30T17:28:30.584Z,32.80
2023-07-30T17:30:58.343Z,32.80
2023-07-30T17:33:26.457Z,32.40
2023-07-30T17:35:54.542Z,32.00
2023-07-30T17:38:22.302Z,31.80
2023-07-30T17:40:54.950Z,31.20
2023-07-30T17:43:23.847Z,30.80
2023-07-30T17:45:52.162Z,30.60
2023-07-30T17:48:20.109Z,30.50
2023-07-30T17:50:49.346Z,30.30
2023-07-30T17:53:17.317Z,30.20
2023-07-30T17:55:45.065Z,30.10
2023-07-30T17:58:12.805Z,30.10
2023-07-30T18:00:44.714Z,30.00
2023-07-30T18:03:13.516Z,29.80
2023-07-30T18:05:49.151Z,29.70
2023-07-30T18:08:17.774Z,29.50
2023-07-30T18:10:47.809Z,29.50
2023-07-30T18:13:16.484Z,29.50
2023-07-30T18:15:44.541Z,29.80
2023-07-30T18:18:14.226Z,29.90
2023-07-30T18:20:42.951Z,29.60
2023-07-30T18:23:10.900Z,29.50
2023-07-30T18:25:38.646Z,29.30
2023-07-30T18:28:07.069Z,29.20
2023-07-30T18:30:35.703Z,29.20
2023-07-30T18:33:05.534Z,29.30
2023-07-30T18:35:34.571Z,29.20
2023-07-30T18:38:02.363Z,29.40
2023-07-30T18:40:30.107Z,29.20
2023-07-30T18:42:57.853Z,29.00
2023-07-30T18:45:25.664Z,28.70
2023-07-30T18:47:53.599Z,28.60
2023-07-30T18:50:21.289Z,28.40
2023-07-30T18:52:49.117Z,28.30
2023-07-30T18:55:16.949Z,28.20
2023-07-30T18:57:44.616Z,28.10
2023-07-30T19:00:13.076Z,28.10
2023-07-30T19:02:40.785Z,28.10
2023-07-30T19:05:08.806Z,28.00
2023-07-30T19:07:36.630Z,28.00
2023-07-30T19:10:04.787Z,27.90
2023-07-30T19:12:32.750Z,27.90
2023-07-30T19:15:00.492Z,27.80
2023-07-30T19:17:28.690Z,27.70
2023-07-30T19:19:57.060Z,27.60
2023-07-30T19:22:24.920Z,27.50
2023-07-30T19:24:52.586Z,27.50
2023-07-30T19:27:20.244Z,27.60
2023-07-30T19:29:47.908Z,27.50
2023-07-30T19:32:15.657Z,27.40
2023-07-30T19:34:43.478Z,27.50
2023-07-30T19:37:11.262Z,27.40
2023-07-30T19:39:38.931Z,27.40
2023-07-30T19:42:06.994Z,27.40
2023-07-30T19:44:34.779Z,27.40
2023-07-30T19:47:02.689Z,27.40
2023-07-30T19:49:30.956Z,27.40
2023-07-30T19:51:59.132Z,27.30
2023-07-30T19:54:26.849Z,27.30
2023-07-30T19:56:57.335Z,27.30
2023-07-30T19:59:25.010Z,27.40
2023-07-30T20:01:52.778Z,27.50
2023-07-30T20:04:20.604Z,27.50
2023-07-30T20:06:48.724Z,27.50
2023-07-30T20:09:16.410Z,27.50
2023-07-30T20:11:44.121Z,27.50
2023-07-30T20:14:12.028Z,27.30
2023-07-30T20:16:39.867Z,27.30
2023-07-30T20:19:07.781Z,27.20
2023-07-30T20:21:35.444Z,27.10
2023-07-30T20:24:03.263Z,27.10
2023-07-30T20:26:31.002Z,27.10
2023-07-30T20:29:01.819Z,27.10
2023-07-30T20:31:29.824Z,27.00
2023-07-30T20:33:57.520Z,27.10
2023-07-30T20:36:25.316Z,27.00
2023-07-30T20:38:52.991Z,27.00
2023-07-30T20:41:20.714Z,26.90
2023-07-30T20:43:48.420Z,26.80
2023-07-30T20:46:16.243Z,26.70
2023-07-30T20:48:44.099Z,26.70
2023-07-30T20:51:14.169Z,26.70
2023-07-30T20:53:42.178Z,26.70
2023-07-30T20:56:10.107Z,26.60
2023-07-30T20:58:38.307Z,26.50
2023-07-30T21:01:06.160Z,26.50
2023-07-30T21:03:33.984Z,26.50
2023-07-30T21:06:01.871Z,26.50
2023-07-30T21:08:30.316Z,26.50
2023-07-30T21:10:58.041Z,26.50
2023-07-30T21:13:25.797Z,26.50
2023-07-30T21:15:53.579Z,26.50
2023-07-30T21:18:21.342Z,26.50
2023-07-30T21:20:49.156Z,26.50
2023-07-30T21:23:16.845Z,26.40
2023-07-30T21:25:44.648Z,26.40
2023-07-30T21:28:12.621Z,26.40
2023-07-30T21:30:40.483Z,26.50
2023-07-30T21:33:08.390Z,26.40
2023-07-30T21:35:36.090Z,26.40
2023-07-30T21:38:03.771Z,26.30
2023-07-30T21:40:31.560Z,26.30
2023-07-30T21:42:59.407Z,26.20
2023-07-30T21:45:27.177Z,26.10
2023-07-30T21:47:54.900Z,26.10
2023-07-30T21:50:22.738Z,26.00
2023-07-30T21:52:50.519Z,26.00
2023-07-30T21:55:18.572Z,26.00
2023-07-30T21:57:47.693Z,26.10
2023-07-30T22:00:15.847Z,26.00
2023-07-30T22:02:43.618Z,26.10
2023-07-30T22:05:11.405Z,26.10
2023-07-30T22:07:39.160Z,26.10
2023-07-30T22:10:08.660Z,26.00
2023-07-30T22:12:36.544Z,26.00
2023-07-30T22:15:04.611Z,25.90
2023-07-30T22:17:33.395Z,25.80
2023-07-30T22:20:01.222Z,25.80
2023-07-30T22:22:29.263Z,25.70
2023-07-30T22:24:56.957Z,25.70
2023-07-30T22:27:24.691Z,25.80
2023-07-30T22:29:52.526Z,25.90
2023-07-30T22:32:20.297Z,26.00
2023-07-30T22:34:48.009Z,26.00
2023-07-30T22:37:15.666Z,26.00
2023-07-30T22:39:43.459Z,26.10
2023-07-30T22:42:11.171Z,26.00
2023-07-30T22:44:38.833Z,25.80
2023-07-30T22:47:06.693Z,25.80
2023-07-30T22:49:34.335Z,25.80
2023-07-30T22:52:02.041Z,25.70
2023-07-30T22:54:29.744Z,25.70
2023-07-30T22:56:57.460Z,25.60
2023-07-30T22:59:25.205Z,25.50
2023-07-30T23:01:53.072Z,25.60
2023-07-30T23:04:20.846Z,25.50
2023-07-30T23:06:48.510Z,25.50
2023-07-30T23:09:16.153Z,25.50
2023-07-30T23:11:43.929Z,25.60
2023-07-30T23:14:11.794Z,25.60
2023-07-30T23:16:39.786Z,25.70
2023-07-30T23:19:07.775Z,25.70
2023-07-30T23:21:35.784Z,25.70
2023-07-30T23:24:03.774Z,25.80
2023-07-30T23:26:31.617Z,25.70
2023-07-30T23:28:59.680Z,25.70
2023-07-30T23:31:27.462Z,25.60
2023-07-30T23:33:55.295Z,25.60
2023-07-30T23:36:23.039Z,25.60
2023-07-30T23:38:50.780Z,25.50
2023-07-30T23:41:18.596Z,25.40
2023-07-30T23:43:46.287Z,25.40
2023-07-30T23:46:14.848Z,25.40
2023-07-30T23:48:42.593Z,25.40
2023-07-30T23:51:10.450Z,25.30
2023-07-30T23:53:38.122Z,25.30
2023-07-30T23:56:05.958Z,25.20
2023-07-30T23:58:33.665Z,25.30
